createdAt,value
2023-02-23T00:00:15.151Z,5.79
2023-02-23T00:03:19.104Z,5.81
2023-02-23T00:06:26.448Z,5.82
2023-02-23T00:09:35.730Z,5.85
2023-02-23T00:12:39.620Z,5.88
2023-02-23T00:15:43.432Z,5.89
2023-02-23T00:18:50.876Z,5.91
2023-02-23T00:21:58.940Z,5.88
2023-02-23T00:25:03.381Z,5.83
2023-02-23T00:28:07.584Z,5.84
2023-02-23T00:31:12.325Z,5.80
2023-02-23T00:34:21.181Z,5.84
2023-02-23T00:37:26.586Z,5.81
2023-02-23T00:40:30.686Z,5.79
2023-02-23T00:43:37.367Z,5.80
2023-02-23T00:46:41.994Z,5.80
2023-02-23T00:49:46.212Z,5.86
2023-02-23T00:52:51.536Z,5.90
2023-02-23T00:55:56.454Z,5.94
2023-02-23T00:59:00.286Z,5.86
2023-02-23T01:02:04.267Z,5.77
2023-02-23T01:05:08.942Z,5.76
2023-02-23T01:08:15.534Z,5.65
2023-02-23T01:11:23.461Z,5.60
2023-02-23T01:14:27.271Z,5.64
2023-02-23T01:17:49.678Z,5.66
2023-02-23T01:20:53.688Z,5.64
2023-02-23T01:23:59.430Z,5.63
2023-02-23T01:27:03.239Z,5.60
2023-02-23T01:30:10.392Z,5.54
2023-02-23T01:33:14.189Z,5.53
2023-02-23T01:36:18.855Z,5.53
2023-02-23T01:39:24.170Z,5.55
2023-02-23T01:42:28.061Z,5.59
2023-02-23T01:45:43.760Z,5.57
2023-02-23T01:48:48.547Z,5.57
2023-02-23T01:52:01.219Z,5.57
2023-02-23T01:55:13.070Z,5.59
2023-02-23T01:58:21.397Z,5.58
2023-02-23T02:01:25.555Z,5.59
2023-02-23T02:04:33.805Z,5.59
2023-02-23T02:07:39.865Z,5.52
2023-02-23T02:10:46.508Z,5.48
2023-02-23T02:13:50.599Z,5.47
2023-02-23T02:17:13.891Z,5.47
2023-02-23T02:20:52.466Z,5.44
2023-02-23T02:24:53.625Z,5.51
2023-02-23T02:28:51.367Z,5.46
2023-02-23T02:32:47.509Z,5.47
2023-02-23T02:36:34.300Z,5.49
2023-02-23T02:39:53.753Z,5.47
2023-02-23T02:43:10.421Z,5.60
2023-02-23T02:46:22.866Z,5.55
2023-02-23T02:49:32.824Z,5.58
2023-02-23T02:52:42.399Z,5.65
2023-02-23T02:55:50.338Z,5.69
2023-02-23T02:58:55.909Z,5.74
2023-02-23T03:02:17.668Z,5.77
2023-02-23T03:05:42.858Z,5.77
2023-02-23T03:09:19.710Z,5.77
2023-02-23T03:12:58.412Z,5.81
2023-02-23T03:16:39.724Z,5.84
2023-02-23T03:20:12.535Z,5.87
2023-02-23T03:23:42.138Z,5.88
2023-02-23T03:27:15.446Z,5.89
2023-02-23T03:30:48.319Z,5.88
2023-02-23T03:34:21.655Z,5.93
2023-02-23T03:37:49.749Z,5.93
2023-02-23T03:41:13.856Z,5.93
2023-02-23T03:44:44.491Z,5.92
2023-02-23T03:48:09.483Z,5.96
2023-02-23T03:51:33.629Z,5.99
2023-02-23T03:55:00.905Z,6.01
2023-02-23T03:58:26.955Z,6.01
2023-02-23T04:01:49.886Z,6.03
2023-02-23T04:05:19.984Z,6.15
2023-02-23T04:08:47.880Z,6.07
2023-02-23T04:12:16.361Z,6.07
2023-02-23T04:15:27.873Z,6.09
2023-02-23T04:18:34.885Z,6.09
2023-02-23T04:21:40.130Z,6.11
2023-02-23T04:24:43.947Z,6.10
2023-02-23T04:27:47.720Z,6.16
2023-02-23T04:30:53.078Z,6.09
2023-02-23T04:33:57.105Z,6.12
2023-02-23T04:37:02.318Z,6.14
2023-02-23T04:40:07.807Z,6.15
2023-02-23T04:43:13.736Z,6.15
2023-02-23T04:46:17.516Z,6.18
2023-02-23T04:49:21.376Z,6.23
2023-02-23T04:52:26.573Z,6.21
2023-02-23T04:55:30.504Z,6.20
2023-02-23T04:58:34.215Z,6.20
2023-02-23T05:01:38.207Z,6.17
2023-02-23T05:04:42.054Z,6.22
2023-02-23T05:07:50.280Z,6.21
2023-02-23T05:10:54.043Z,6.19
2023-02-23T05:13:57.848Z,6.18
2023-02-23T05:17:01.681Z,6.21
2023-02-23T05:20:06.321Z,6.19
2023-02-23T05:23:11.699Z,6.23
2023-02-23T05:26:16.044Z,6.20
2023-02-23T05:29:20.133Z,6.18
2023-02-23T05:32:24.144Z,6.18
2023-02-23T05:35:27.972Z,6.16
2023-02-23T05:38:33.263Z,6.18
2023-02-23T05:41:37.168Z,6.20
2023-02-23T05:44:41.106Z,6.12
2023-02-23T05:47:44.897Z,6.11
2023-02-23T05:50:48.782Z,6.13
2023-02-23T05:53:54.001Z,6.11
2023-02-23T05:56:59.002Z,6.08
2023-02-23T06:00:05.719Z,6.06
2023-02-23T06:03:09.611Z,6.01
2023-02-23T06:06:14.345Z,6.00
2023-02-23T06:09:19.672Z,6.04
2023-02-23T06:12:24.004Z,5.95
2023-02-23T06:15:29.891Z,5.95
2023-02-23T06:18:34.010Z,5.97
2023-02-23T06:21:37.939Z,5.94
2023-02-23T06:24:43.236Z,5.95
2023-02-23T06:27:47.143Z,6.00
2023-02-23T06:30:53.495Z,5.99
2023-02-23T06:33:57.416Z,5.95
2023-02-23T06:37:01.177Z,5.94
2023-02-23T06:40:08.513Z,5.92
2023-02-23T06:43:12.321Z,5.96
2023-02-23T06:46:16.191Z,5.93
2023-02-23T06:49:19.945Z,5.91
2023-02-23T06:52:25.156Z,5.90
2023-02-23T06:55:30.426Z,5.93
2023-02-23T06:58:34.543Z,5.90
2023-02-23T07:01:38.347Z,6.04
2023-02-23T07:04:42.547Z,6.00
2023-02-23T07:07:46.632Z,5.97
2023-02-23T07:10:51.836Z,5.97
2023-02-23T07:13:59.441Z,6.00
2023-02-23T07:17:04.372Z,6.08
2023-02-23T07:20:09.210Z,6.05
2023-02-23T07:23:13.023Z,6.05
2023-02-23T07:26:18.512Z,6.01
2023-02-23T07:29:24.122Z,6.09
2023-02-23T07:32:28.091Z,6.06
2023-02-23T07:35:32.003Z,6.05
2023-02-23T07:38:36.709Z,6.08
2023-02-23T07:41:41.974Z,6.24
2023-02-23T07:44:46.796Z,6.09
2023-02-23T07:47:50.701Z,6.18
2023-02-23T07:50:55.128Z,6.09
2023-02-23T07:54:05.951Z,6.16
2023-02-23T07:57:13.080Z,6.11
2023-02-23T08:00:17.970Z,6.14
2023-02-23T08:03:21.835Z,6.15
2023-02-23T08:06:25.709Z,6.09
2023-02-23T08:09:30.844Z,6.13
2023-02-23T08:12:36.265Z,6.13
2023-02-23T08:15:40.219Z,6.17
2023-02-23T08:18:44.195Z,6.20
2023-02-23T08:21:47.947Z,6.17
2023-02-23T08:24:51.795Z,6.13
2023-02-23T08:27:57.215Z,6.11
2023-02-23T08:31:01.269Z,6.20
2023-02-23T08:34:05.077Z,6.20
2023-02-23T08:37:09.292Z,6.17
2023-02-23T08:40:15.867Z,6.17
2023-02-23T08:43:21.002Z,6.13
2023-02-23T08:46:24.838Z,6.21
2023-02-23T08:49:28.640Z,6.22
2023-02-23T08:52:32.614Z,6.27
2023-02-23T08:55:37.324Z,6.32
2023-02-23T08:58:43.502Z,6.31
2023-02-23T09:01:47.327Z,6.22
2023-02-23T09:04:54.118Z,6.31
2023-02-23T09:07:57.937Z,6.30
2023-02-23T09:11:01.718Z,6.34
2023-02-23T09:14:07.093Z,6.30
2023-02-23T09:17:11.572Z,6.33
2023-02-23T09:20:18.864Z,6.32
2023-02-23T09:23:24.226Z,6.28
2023-02-23T09:26:29.426Z,6.33
2023-02-23T09:29:35.128Z,6.38
2023-02-23T09:32:39.035Z,6.34
2023-02-23T09:35:43.348Z,6.38
2023-02-23T09:38:50.484Z,6.46
2023-02-23T09:42:18.246Z,6.40
2023-02-23T09:45:38.691Z,6.45
2023-02-23T09:48:43.360Z,6.44
2023-02-23T09:51:55.448Z,6.50
2023-02-23T09:55:00.120Z,6.48
2023-02-23T09:58:15.008Z,6.50
2023-02-23T10:01:58.901Z,6.47
2023-02-23T10:05:09.780Z,6.50
2023-02-23T10:08:43.609Z,6.70
2023-02-23T10:11:57.358Z,6.69
2023-02-23T10:15:20.082Z,6.65
2023-02-23T10:18:46.647Z,6.83
2023-02-23T10:21:58.019Z,6.81
2023-02-23T10:25:07.629Z,6.85
2023-02-23T10:28:17.876Z,6.78
2023-02-23T10:31:34.755Z,6.80
2023-02-23T10:34:41.903Z,6.78
2023-02-23T10:37:47.369Z,6.65
2023-02-23T10:40:56.570Z,6.69
2023-02-23T10:44:15.441Z,6.68
2023-02-23T10:47:26.536Z,6.67
2023-02-23T10:50:33.896Z,6.72
2023-02-23T10:53:40.062Z,6.72
2023-02-23T10:56:48.512Z,6.60
2023-02-23T11:00:30.822Z,6.60
2023-02-23T11:03:40.561Z,6.52
2023-02-23T11:06:48.758Z,6.45
2023-02-23T11:09:52.956Z,6.48
2023-02-23T11:12:56.811Z,6.48
2023-02-23T11:16:10.456Z,6.48
2023-02-23T11:19:31.364Z,6.45
2023-02-23T11:22:42.398Z,6.47
2023-02-23T11:25:49.513Z,6.46
2023-02-23T11:28:57.779Z,6.39
2023-02-23T11:32:10.169Z,6.37
2023-02-23T11:35:29.491Z,6.31
2023-02-23T11:38:35.960Z,6.33
2023-02-23T11:41:39.899Z,6.30
2023-02-23T11:44:44.948Z,6.30
2023-02-23T11:47:52.070Z,6.31
2023-02-23T11:50:57.640Z,6.31
2023-02-23T11:54:05.941Z,6.35
2023-02-23T11:57:10.034Z,6.29
2023-02-23T12:00:25.464Z,6.22
2023-02-23T12:03:34.766Z,6.00
2023-02-23T12:06:41.374Z,5.91
2023-02-23T12:09:49.892Z,5.83
2023-02-23T12:13:07.529Z,5.83
2023-02-23T12:16:20.630Z,5.79
2023-02-23T12:19:33.080Z,5.82
2023-02-23T12:22:44.776Z,5.81
2023-02-23T12:25:56.221Z,5.80
2023-02-23T12:29:07.400Z,5.75
2023-02-23T12:32:20.302Z,5.80
2023-02-23T12:35:32.563Z,5.71
2023-02-23T12:38:52.082Z,5.73
2023-02-23T12:42:09.367Z,5.50
2023-02-23T12:45:25.771Z,5.45
2023-02-23T12:48:40.129Z,5.47
2023-02-23T12:51:52.955Z,5.56
2023-02-23T12:54:57.795Z,5.64
2023-02-23T12:58:15.977Z,5.66
2023-02-23T13:01:28.485Z,5.77
2023-02-23T13:05:13.178Z,5.78
2023-02-23T13:08:31.974Z,5.84
2023-02-23T13:11:59.877Z,5.91
2023-02-23T13:15:27.129Z,6.00
2023-02-23T13:18:38.672Z,5.98
2023-02-23T13:21:50.613Z,5.99
2023-02-23T13:25:00.000Z,5.97
2023-02-23T13:28:05.590Z,6.02
2023-02-23T13:31:23.760Z,6.16
2023-02-23T13:34:32.615Z,6.41
2023-02-23T13:37:48.048Z,6.44
2023-02-23T13:41:06.320Z,6.42
2023-02-23T13:44:26.606Z,6.56
2023-02-23T13:47:45.651Z,6.47
2023-02-23T13:51:01.237Z,6.49
2023-02-23T13:54:24.402Z,6.52
2023-02-23T13:57:30.162Z,6.52
2023-02-23T14:00:35.308Z,6.55
2023-02-23T14:03:54.786Z,6.59
2023-02-23T14:07:06.803Z,6.52
2023-02-23T14:10:21.430Z,6.46
2023-02-23T14:13:30.361Z,6.49
2023-02-23T14:16:34.436Z,6.55
2023-02-23T14:19:43.541Z,6.65
2023-02-23T14:23:30.265Z,6.73
2023-02-23T14:26:47.804Z,6.72
2023-02-23T14:30:27.314Z,6.67
2023-02-23T14:33:51.918Z,6.67
2023-02-23T14:36:57.176Z,6.73
2023-02-23T14:40:14.407Z,6.76
2023-02-23T14:43:44.092Z,6.74
2023-02-23T14:46:59.099Z,6.75
2023-02-23T14:50:04.035Z,6.75
2023-02-23T14:53:19.837Z,6.70
2023-02-23T14:56:35.503Z,6.66
2023-02-23T14:59:52.418Z,6.70
2023-02-23T15:03:00.406Z,6.79
2023-02-23T15:06:04.442Z,6.77
2023-02-23T15:09:19.478Z,6.73
2023-02-23T15:12:28.651Z,6.84
2023-02-23T15:15:49.875Z,6.71
2023-02-23T15:18:54.397Z,6.77
2023-02-23T15:22:01.702Z,6.75
2023-02-23T15:25:17.669Z,6.65
2023-02-23T15:28:29.664Z,6.60
2023-02-23T15:31:34.943Z,6.57
2023-02-23T15:34:39.027Z,6.60
2023-02-23T15:37:55.407Z,6.56
2023-02-23T15:41:23.240Z,6.48
2023-02-23T15:44:43.795Z,6.45
2023-02-23T15:47:48.781Z,6.32
2023-02-23T15:50:57.808Z,6.04
2023-02-23T15:54:06.825Z,5.84
2023-02-23T15:57:22.976Z,5.74
2023-02-23T16:00:38.094Z,5.62
2023-02-23T16:03:48.142Z,5.50
2023-02-23T16:06:55.498Z,5.17
2023-02-23T16:10:19.573Z,5.03
2023-02-23T16:13:27.393Z,4.95
2023-02-23T16:16:36.318Z,4.85
2023-02-23T16:19:42.094Z,4.63
2023-02-23T16:22:54.932Z,4.57
2023-02-23T16:26:06.787Z,4.58
2023-02-23T16:29:20.335Z,4.44
2023-02-23T16:32:24.964Z,4.39
2023-02-23T16:35:41.069Z,4.40
2023-02-23T16:38:59.136Z,4.38
2023-02-23T16:42:03.133Z,4.42
2023-02-23T16:45:17.278Z,4.33
2023-02-23T16:48:21.263Z,4.24
2023-02-23T16:51:25.058Z,4.30
2023-02-23T16:54:29.446Z,4.25
2023-02-23T16:57:42.011Z,4.20
2023-02-23T17:00:48.079Z,4.16
2023-02-23T17:03:54.092Z,4.17
2023-02-23T17:06:57.942Z,4.13
2023-02-23T17:10:01.743Z,4.13
2023-02-23T17:13:08.823Z,4.10
2023-02-23T17:16:15.451Z,4.07
2023-02-23T17:19:20.300Z,4.09
2023-02-23T17:22:24.104Z,4.08
2023-02-23T17:25:29.075Z,4.10
2023-02-23T17:28:32.949Z,4.04
2023-02-23T17:31:40.461Z,4.09
2023-02-23T17:34:44.345Z,4.11
2023-02-23T17:37:48.682Z,4.02
2023-02-23T17:40:52.405Z,4.06
2023-02-23T17:43:56.548Z,4.07
2023-02-23T17:47:01.768Z,3.99
2023-02-23T17:50:06.353Z,4.01
2023-02-23T17:53:10.173Z,3.94
2023-02-23T17:56:14.051Z,3.89
2023-02-23T17:59:17.907Z,3.84
2023-02-23T18:02:24.201Z,3.72
2023-02-23T18:05:28.211Z,3.65
2023-02-23T18:08:58.159Z,3.64
2023-02-23T18:12:03.410Z,3.51
2023-02-23T18:15:08.911Z,3.53
2023-02-23T18:18:14.192Z,3.49
2023-02-23T18:21:21.170Z,3.44
2023-02-23T18:24:25.202Z,3.45
2023-02-23T18:27:29.010Z,3.43
2023-02-23T18:30:32.936Z,3.53
2023-02-23T18:33:40.050Z,3.46
2023-02-23T18:36:44.276Z,3.46
2023-02-23T18:39:52.517Z,3.44
2023-02-23T18:42:58.299Z,3.61
2023-02-23T18:46:05.913Z,3.52
2023-02-23T18:49:16.061Z,3.50
2023-02-23T18:52:20.242Z,3.48
2023-02-23T18:55:24.997Z,3.42
2023-02-23T18:58:28.501Z,3.44
2023-02-23T19:01:34.684Z,3.41
2023-02-23T19:04:40.186Z,3.31
2023-02-23T19:07:44.348Z,3.28
2023-02-23T19:10:48.510Z,3.30
2023-02-23T19:13:53.069Z,3.11
2023-02-23T19:16:56.541Z,3.17
2023-02-23T19:20:01.822Z,3.22
2023-02-23T19:23:06.290Z,3.23
2023-02-23T19:26:09.798Z,3.19
2023-02-23T19:29:13.313Z,3.15
2023-02-23T19:32:18.049Z,3.20
2023-02-23T19:35:23.061Z,3.22
2023-02-23T19:38:27.528Z,3.22
2023-02-23T19:41:30.986Z,3.21
2023-02-23T19:44:34.774Z,3.13
2023-02-23T19:47:38.372Z,3.13
2023-02-23T19:50:49.571Z,3.20
2023-02-23T19:53:55.369Z,3.28
2023-02-23T19:56:58.967Z,3.25
2023-02-23T20:00:02.651Z,3.29
2023-02-23T20:03:07.359Z,3.30
2023-02-23T20:06:14.518Z,3.30
2023-02-23T20:09:18.251Z,3.24
2023-02-23T20:12:21.977Z,3.22
2023-02-23T20:15:42.774Z,3.26
2023-02-23T20:18:47.047Z,3.11
2023-02-23T20:21:52.376Z,2.98
2023-02-23T20:24:56.929Z,2.89
2023-02-23T20:28:00.514Z,2.87
2023-02-23T20:31:05.616Z,2.81
2023-02-23T20:34:12.094Z,2.74
2023-02-23T20:37:17.129Z,2.65
2023-02-23T20:40:23.061Z,2.53
2023-02-23T20:43:26.537Z,2.53
2023-02-23T20:46:31.005Z,2.46
2023-02-23T20:49:34.616Z,2.43
2023-02-23T20:52:40.516Z,2.39
2023-02-23T20:55:43.992Z,2.41
2023-02-23T20:58:48.666Z,2.43
2023-02-23T21:01:52.123Z,2.37
2023-02-23T21:04:55.826Z,2.36
2023-02-23T21:08:03.037Z,2.37
2023-02-23T21:11:07.909Z,2.41
2023-02-23T21:14:12.019Z,2.38
2023-02-23T21:17:15.558Z,2.34
2023-02-23T21:20:21.116Z,2.31
2023-02-23T21:23:26.768Z,2.34
2023-02-23T21:26:30.569Z,2.33
2023-02-23T21:29:34.108Z,2.37
2023-02-23T21:32:42.177Z,2.34
2023-02-23T21:35:45.839Z,2.32
2023-02-23T21:38:51.359Z,2.33
2023-02-23T21:41:54.930Z,2.27
2023-02-23T21:44:58.423Z,2.26
2023-02-23T21:48:04.075Z,2.21
2023-02-23T21:51:11.453Z,2.09
2023-02-23T21:54:16.602Z,2.02
2023-02-23T21:57:22.710Z,1.99
2023-02-23T22:00:28.075Z,1.95
2023-02-23T22:03:31.541Z,2.04
2023-02-23T22:06:40.263Z,1.97
2023-02-23T22:09:45.539Z,2.14
2023-02-23T22:12:50.671Z,2.13
2023-02-23T22:15:59.988Z,2.18
2023-02-23T22:19:05.074Z,2.10
2023-02-23T22:22:08.537Z,2.15
2023-02-23T22:25:13.559Z,2.10
2023-02-23T22:28:16.987Z,2.10
2023-02-23T22:31:21.012Z,2.10
2023-02-23T22:34:24.678Z,2.21
2023-02-23T22:37:30.021Z,2.28
2023-02-23T22:40:35.859Z,2.14
2023-02-23T22:43:40.290Z,2.13
2023-02-23T22:46:46.524Z,2.15
2023-02-23T22:49:51.014Z,2.20
2023-02-23T22:52:54.452Z,2.17
2023-02-23T22:55:59.694Z,2.26
2023-02-23T22:59:06.222Z,2.26
2023-02-23T23:02:11.798Z,2.35
2023-02-23T23:05:16.240Z,2.40
2023-02-23T23:08:19.731Z,2.39
2023-02-23T23:11:28.390Z,2.36
2023-02-23T23:14:32.685Z,2.43
2023-02-23T23:17:36.133Z,2.49
2023-02-23T23:20:39.637Z,2.43
2023-02-23T23:23:46.125Z,2.57
2023-02-23T23:26:55.540Z,2.48
2023-02-23T23:29:59.116Z,2.49
2023-02-23T23:33:03.444Z,2.46
2023-02-23T23:36:08.298Z,2.47
2023-02-23T23:39:13.261Z,2.56
2023-02-23T23:42:18.134Z,2.53
2023-02-23T23:45:25.223Z,2.54
2023-02-23T23:48:29.651Z,2.51
2023-02-23T23:51:38.797Z,2.60
2023-02-23T23:54:42.886Z,2.61
2023-02-23T23:57:47.964Z,2.61
